createdAt,value
2023-01-17T00:01:55.916Z,0.09
2023-01-17T00:07:03.083Z,0.10
2023-01-17T00:12:09.781Z,0.15
2023-01-17T00:17:16.080Z,0.10
2023-01-17T00:22:22.706Z,0.10
2023-01-17T00:27:29.092Z,0.11
2023-01-17T00:32:35.698Z,0.10
2023-01-17T00:37:42.002Z,0.12
2023-01-17T00:42:48.606Z,0.15
2023-01-17T00:47:56.861Z,0.11
2023-01-17T00:53:01.120Z,0.07
2023-01-17T00:58:07.433Z,0.15
2023-01-17T01:03:13.966Z,0.10
2023-01-17T01:08:21.125Z,0.10
2023-01-17T01:13:27.820Z,0.14
2023-01-17T01:18:34.189Z,0.18
2023-01-17T01:23:40.830Z,0.16
2023-01-17T01:28:47.164Z,0.11
2023-01-17T01:33:53.792Z,0.11
2023-01-17T01:39:00.160Z,0.16
2023-01-17T01:44:06.781Z,0.11
2023-01-17T01:49:13.124Z,0.02
2023-01-17T01:54:20.166Z,0.00
2023-01-17T01:59:26.514Z,0.06
2023-01-17T02:04:34.254Z,0.00
2023-01-17T02:09:40.725Z,0.00
2023-01-17T02:14:47.415Z,0.00
2023-01-17T02:19:53.741Z,0.03
2023-01-17T02:25:00.438Z,0.12
2023-01-17T02:30:06.886Z,0.07
2023-01-17T02:35:13.433Z,0.15
2023-01-17T02:40:19.862Z,0.08
2023-01-17T02:45:26.651Z,0.07
2023-01-17T02:50:33.071Z,0.05
2023-01-17T02:55:39.739Z,0.10
2023-01-17T03:00:46.119Z,0.06
2023-01-17T03:05:52.723Z,0.10
2023-01-17T03:10:59.139Z,0.06
2023-01-17T03:16:05.792Z,0.10
2023-01-17T03:21:12.156Z,0.12
2023-01-17T03:26:18.890Z,0.10
2023-01-17T03:31:25.284Z,0.16
2023-01-17T03:36:31.948Z,0.10
2023-01-17T03:41:38.264Z,0.09
2023-01-17T03:46:44.970Z,0.10
2023-01-17T03:51:51.425Z,0.09
2023-01-17T03:56:57.918Z,0.10
2023-01-17T04:02:04.323Z,0.10
2023-01-17T04:07:10.826Z,0.09
2023-01-17T04:12:17.599Z,0.07
2023-01-17T04:17:24.277Z,0.10
2023-01-17T04:22:30.658Z,0.03
2023-01-17T04:27:37.424Z,0.10
2023-01-17T04:32:43.737Z,0.17
2023-01-17T04:37:50.415Z,0.19
2023-01-17T04:42:56.733Z,0.10
2023-01-17T04:48:03.395Z,0.11
2023-01-17T04:53:09.736Z,0.09
2023-01-17T04:58:16.312Z,0.09
2023-01-17T05:03:22.726Z,0.30
2023-01-17T05:08:29.453Z,0.16
2023-01-17T05:13:36.705Z,0.00
2023-01-17T05:18:43.432Z,0.00
2023-01-17T05:23:49.747Z,0.00
2023-01-17T05:28:56.484Z,0.00
2023-01-17T05:34:05.866Z,0.00
2023-01-17T05:39:11.445Z,0.00
2023-01-17T05:44:17.869Z,0.08
2023-01-17T05:49:24.717Z,0.11
2023-01-17T05:54:31.039Z,0.22
2023-01-17T05:59:37.768Z,0.14
2023-01-17T06:04:44.357Z,0.10
2023-01-17T06:09:51.054Z,0.13
2023-01-17T06:14:57.930Z,0.11
2023-01-17T06:20:04.614Z,0.10
2023-01-17T06:25:11.035Z,0.10
2023-01-17T06:30:17.654Z,0.17
2023-01-17T06:35:24.006Z,0.15
2023-01-17T06:40:31.494Z,0.10
2023-01-17T06:45:37.890Z,1.65
2023-01-17T06:47:13.712Z,1.47
2023-01-17T06:52:21.074Z,0.83
2023-01-17T06:57:28.067Z,0.73
2023-01-17T07:02:36.766Z,0.25
2023-01-17T07:07:43.002Z,0.36
2023-01-17T07:12:54.211Z,0.26
2023-01-17T07:17:54.878Z,0.89
2023-01-17T07:23:00.588Z,0.12
2023-01-17T07:28:06.923Z,0.15
2023-01-17T07:33:13.629Z,0.11
2023-01-17T07:38:19.962Z,0.15
2023-01-17T07:43:27.107Z,0.10
2023-01-17T07:48:33.514Z,0.11
2023-01-17T07:53:42.133Z,0.14
2023-01-17T07:58:48.932Z,0.10
2023-01-17T08:03:55.877Z,0.38
2023-01-17T08:09:02.224Z,0.10
2023-01-17T08:14:09.275Z,0.11
2023-01-17T08:19:15.643Z,0.11
2023-01-17T08:24:22.658Z,0.14
2023-01-17T08:29:28.969Z,0.13
2023-01-17T08:34:35.646Z,0.08
2023-01-17T08:39:42.005Z,0.19
2023-01-17T08:44:48.986Z,0.11
2023-01-17T08:49:55.872Z,0.10
2023-01-17T08:55:03.232Z,0.11
2023-01-17T09:00:09.593Z,0.05
2023-01-17T09:05:16.212Z,0.19
2023-01-17T09:10:22.590Z,0.00
2023-01-17T09:15:29.340Z,0.02
2023-01-17T09:20:35.765Z,0.00
2023-01-17T09:25:42.593Z,0.05
2023-01-17T09:30:49.041Z,0.13
2023-01-17T09:35:56.447Z,0.02
2023-01-17T09:41:02.834Z,0.10
2023-01-17T09:46:10.382Z,0.10
2023-01-17T09:56:18.829Z,0.06
2023-01-17T10:01:25.323Z,0.10
2023-01-17T10:06:32.035Z,0.11
2023-01-17T10:11:38.394Z,0.10
2023-01-17T10:16:45.293Z,0.10
2023-01-17T10:21:51.663Z,0.10
2023-01-17T10:26:58.507Z,0.10
2023-01-17T10:32:04.913Z,0.10
2023-01-17T10:37:11.826Z,0.10
2023-01-17T10:42:18.237Z,0.15
2023-01-17T10:47:24.899Z,0.12
2023-01-17T10:52:31.352Z,0.12
2023-01-17T10:57:39.198Z,0.10
2023-01-17T11:02:45.630Z,0.10
2023-01-17T11:07:52.531Z,0.11
2023-01-17T11:12:58.928Z,0.10
2023-01-17T11:18:05.724Z,0.10
2023-01-17T11:23:12.076Z,0.12
2023-01-17T11:28:18.770Z,0.11
2023-01-17T11:33:25.129Z,0.14
2023-01-17T11:38:32.586Z,0.17
2023-01-17T11:43:38.973Z,0.18
2023-01-17T11:48:46.550Z,0.13
2023-01-17T11:53:52.913Z,0.19
2023-01-17T11:59:00.506Z,0.14
2023-01-17T12:04:06.844Z,0.02
2023-01-17T12:09:13.469Z,0.03
2023-01-17T12:14:19.814Z,0.00
2023-01-17T12:19:26.569Z,0.00
2023-01-17T12:24:33.027Z,0.02
2023-01-17T12:29:39.774Z,0.06
2023-01-17T12:34:46.093Z,0.01
2023-01-17T12:39:52.829Z,0.09
2023-01-17T12:44:59.165Z,0.06
2023-01-17T12:50:05.806Z,0.10
2023-01-17T12:55:12.487Z,0.20
2023-01-17T13:00:19.292Z,0.09
2023-01-17T13:05:25.677Z,0.10
2023-01-17T13:10:36.239Z,0.09
2023-01-17T13:15:32.598Z,0.10
2023-01-17T13:20:39.918Z,0.10
2023-01-17T13:25:45.463Z,0.11
2023-01-17T13:30:52.283Z,0.10
2023-01-17T13:35:58.673Z,0.14
2023-01-17T13:40:09.303Z,0.19
2023-01-17T13:45:05.762Z,0.14
2023-01-17T13:50:12.207Z,0.18
2023-01-17T13:55:22.789Z,0.20
2023-01-17T14:00:19.099Z,0.11
2023-01-17T14:05:25.740Z,0.13
2023-01-17T14:10:35.180Z,0.13
2023-01-17T14:15:42.010Z,0.10
2023-01-17T14:20:48.462Z,0.10
2023-01-17T14:25:55.054Z,0.11
2023-01-17T14:31:02.724Z,0.10
2023-01-17T14:36:09.402Z,0.10
2023-01-17T14:41:15.876Z,0.15
2023-01-17T14:46:22.569Z,0.16
2023-01-17T14:51:28.884Z,0.10
2023-01-17T14:56:35.959Z,0.10
2023-01-17T15:01:42.684Z,0.10
2023-01-17T15:06:49.864Z,0.17
2023-01-17T15:11:56.321Z,0.10
2023-01-17T15:17:02.972Z,0.10
2023-01-17T15:22:09.408Z,0.15
2023-01-17T15:27:16.093Z,0.19
2023-01-17T15:32:24.347Z,0.11
2023-01-17T15:37:31.269Z,0.14
2023-01-17T15:42:37.615Z,0.08
2023-01-17T15:47:44.409Z,0.00
2023-01-17T15:52:50.888Z,0.00
2023-01-17T15:57:57.711Z,0.05
2023-01-17T16:03:04.132Z,0.00
2023-01-17T16:08:10.777Z,0.00
2023-01-17T16:13:17.188Z,0.00
2023-01-17T16:18:24.117Z,0.00
2023-01-17T16:23:33.830Z,0.00
2023-01-17T16:28:40.590Z,0.00
2023-01-17T16:33:49.140Z,0.00
2023-01-17T16:38:55.825Z,0.00
2023-01-17T16:44:02.347Z,0.00
2023-01-17T16:49:09.024Z,0.00
2023-01-17T16:54:15.753Z,0.00
2023-01-17T16:59:22.326Z,0.00
2023-01-17T17:04:28.755Z,0.00
2023-01-17T17:09:35.940Z,0.00
2023-01-17T17:14:42.395Z,0.00
2023-01-17T17:19:50.005Z,0.00
2023-01-17T17:24:56.478Z,0.13
2023-01-17T17:30:04.429Z,0.06
2023-01-17T17:35:10.849Z,0.05
2023-01-17T17:40:17.561Z,0.00
2023-01-17T17:45:23.937Z,0.15
2023-01-17T17:50:30.664Z,0.09
2023-01-17T17:55:38.315Z,0.10
2023-01-17T18:00:46.073Z,0.10
2023-01-17T18:05:52.780Z,0.10
2023-01-17T18:11:01.051Z,0.10
2023-01-17T18:16:07.453Z,0.11
2023-01-17T18:21:19.297Z,0.10
2023-01-17T18:26:15.494Z,0.10
2023-01-17T18:31:22.393Z,0.10
2023-01-17T18:36:28.849Z,0.16
2023-01-17T18:41:35.651Z,0.10
2023-01-17T18:46:42.398Z,0.11
2023-01-17T18:51:50.001Z,0.05
2023-01-17T18:56:56.951Z,0.00
2023-01-17T19:02:03.568Z,0.05
2023-01-17T19:07:12.699Z,0.04
2023-01-17T19:12:19.042Z,0.00
2023-01-17T19:17:26.504Z,0.05
2023-01-17T19:22:33.083Z,0.13
2023-01-17T19:27:39.496Z,0.05
2023-01-17T19:32:46.270Z,0.11
2023-01-17T19:37:52.650Z,0.08
2023-01-17T19:42:59.387Z,0.15
2023-01-17T19:48:05.777Z,0.13
2023-01-17T19:53:12.451Z,0.10
2023-01-17T19:58:19.452Z,0.13
2023-01-17T20:03:26.179Z,0.10
2023-01-17T20:08:32.592Z,0.10
2023-01-17T20:13:39.220Z,0.11
2023-01-17T20:18:45.746Z,0.10
2023-01-17T20:23:52.395Z,0.15
2023-01-17T20:28:58.989Z,0.12
2023-01-17T20:34:05.645Z,0.15
2023-01-17T20:39:12.187Z,0.17
2023-01-17T20:44:19.108Z,0.12
2023-01-17T20:49:25.545Z,0.12
2023-01-17T20:54:32.215Z,0.13
2023-01-17T20:59:38.878Z,0.17
2023-01-17T21:04:45.677Z,0.11
2023-01-17T21:09:52.146Z,0.11
2023-01-17T21:14:59.445Z,0.29
2023-01-17T21:20:05.797Z,0.18
2023-01-17T21:25:12.553Z,0.16
2023-01-17T21:30:18.957Z,0.23
2023-01-17T21:35:25.750Z,0.17
2023-01-17T21:40:32.250Z,0.17
2023-01-17T21:45:39.033Z,0.17
2023-01-17T21:50:45.403Z,0.19
2023-01-17T21:55:53.650Z,0.10
2023-01-17T22:01:00.079Z,0.10
2023-01-17T22:06:06.685Z,0.10
2023-01-17T22:11:13.070Z,0.13
2023-01-17T22:16:19.750Z,0.13
2023-01-17T22:21:26.167Z,0.10
2023-01-17T22:26:32.923Z,0.10
2023-01-17T22:31:39.337Z,0.10
2023-01-17T22:36:46.782Z,0.10
2023-01-17T22:41:53.201Z,0.15
2023-01-17T22:47:00.579Z,0.20
2023-01-17T22:52:07.053Z,0.21
2023-01-17T22:57:15.208Z,0.20
2023-01-17T23:02:21.875Z,0.11
2023-01-17T23:07:28.896Z,0.21
2023-01-17T23:12:35.273Z,0.14
2023-01-17T23:17:42.289Z,0.20
2023-01-17T23:22:48.662Z,0.14
2023-01-17T23:27:56.185Z,0.17
2023-01-17T23:33:02.504Z,0.12
2023-01-17T23:38:09.885Z,0.15
2023-01-17T23:43:16.221Z,0.10
2023-01-17T23:48:22.801Z,0.10
2023-01-17T23:53:29.163Z,0.10
2023-01-17T23:58:36.105Z,0.15
